createdAt,value
2018-02-10T00:01:19.969Z,91.10
2018-02-10T00:03:47.703Z,91.30
2018-02-10T00:06:15.323Z,91.20
2018-02-10T00:08:43.690Z,90.80
2018-02-10T00:11:11.364Z,90.80
2018-02-10T00:13:39.009Z,91.10
2018-02-10T00:16:06.660Z,91.40
2018-02-10T00:21:07.450Z,90.70
2018-02-10T00:23:35.168Z,91.20
2018-02-10T00:28:34.660Z,92.20
2018-02-10T00:31:02.384Z,92.20
2018-02-10T00:36:09.199Z,90.90
2018-02-10T00:38:36.845Z,91.40
2018-02-10T00:41:06.771Z,91.00
2018-02-10T00:46:02.093Z,90.20
2018-02-10T00:48:30.289Z,90.10
2018-02-10T00:51:00.039Z,90.20
2018-02-10T00:53:28.128Z,90.90
2018-02-10T00:55:56.647Z,90.30
2018-02-10T00:58:24.362Z,90.50
2018-02-10T01:00:52.012Z,90.60
2018-02-10T01:03:19.679Z,91.10
2018-02-10T01:05:47.429Z,91.40
2018-02-10T01:08:15.076Z,91.50
2018-02-10T01:10:42.781Z,91.60
2018-02-10T01:13:11.492Z,91.40
2018-02-10T01:15:39.609Z,91.80
2018-02-10T01:18:07.255Z,92.10
2018-02-10T01:20:34.962Z,92.10
2018-02-10T01:23:02.614Z,92.10
2018-02-10T01:25:30.249Z,92.00
2018-02-10T01:27:58.337Z,91.90
2018-02-10T01:30:29.121Z,91.60
2018-02-10T01:32:56.749Z,91.00
2018-02-10T01:35:24.443Z,90.60
2018-02-10T01:37:52.079Z,91.00
2018-02-10T01:40:19.724Z,91.30
2018-02-10T01:42:47.542Z,91.40
2018-02-10T01:45:17.413Z,91.30
2018-02-10T01:47:45.054Z,90.80
2018-02-10T01:53:00.376Z,90.60
2018-02-10T01:55:28.107Z,90.70
2018-02-10T01:57:55.736Z,90.20
2018-02-10T02:00:23.385Z,89.20
2018-02-10T02:02:51.092Z,89.10
2018-02-10T02:05:20.157Z,89.30
2018-02-10T02:07:47.801Z,89.50
2018-02-10T02:12:43.181Z,89.70
2018-02-10T02:15:10.826Z,89.70
2018-02-10T02:17:38.541Z,90.10
2018-02-10T02:22:33.832Z,88.20
2018-02-10T02:25:01.584Z,88.60
2018-02-10T02:27:29.281Z,87.90
2018-02-10T02:29:56.866Z,87.70
2018-02-10T02:32:24.600Z,88.00
2018-02-10T02:34:52.244Z,88.30
2018-02-10T02:39:59.998Z,87.50
2018-02-10T02:44:55.525Z,87.10
2018-02-10T02:47:24.034Z,87.30
2018-02-10T02:49:52.556Z,86.40
2018-02-10T02:52:20.213Z,85.80
2018-02-10T02:54:47.880Z,85.50
2018-02-10T02:57:15.525Z,85.90
2018-02-10T02:59:46.098Z,86.30
2018-02-10T03:02:13.792Z,86.70
2018-02-10T03:04:42.410Z,87.20
2018-02-10T03:07:10.045Z,85.90
2018-02-10T03:09:37.766Z,85.20
2018-02-10T03:12:05.420Z,85.10
2018-02-10T03:14:33.062Z,85.80
2018-02-10T03:17:00.754Z,86.20
2018-02-10T03:19:28.969Z,87.00
2018-02-10T03:21:56.881Z,87.90
2018-02-10T03:24:26.410Z,87.90
2018-02-10T03:26:52.245Z,87.10
2018-02-10T03:29:19.917Z,87.50
2018-02-10T03:31:47.638Z,87.20
2018-02-10T03:34:15.329Z,86.80
2018-02-10T03:36:42.965Z,86.10
2018-02-10T03:39:10.694Z,86.50
2018-02-10T03:41:38.869Z,88.00
2018-02-10T03:44:06.499Z,88.90
2018-02-10T03:46:34.228Z,89.70
2018-02-10T03:51:42.942Z,90.50
2018-02-10T03:54:11.133Z,91.20
2018-02-10T03:56:38.770Z,90.30
2018-02-10T03:59:06.949Z,90.10
2018-02-10T04:01:35.432Z,90.20
2018-02-10T04:04:03.074Z,90.30
2018-02-10T04:08:59.464Z,90.20
2018-02-10T04:11:27.115Z,89.70
2018-02-10T04:13:54.831Z,90.00
2018-02-10T04:16:22.462Z,90.10
2018-02-10T04:18:50.177Z,90.50
2018-02-10T04:21:17.907Z,90.70
2018-02-10T04:23:46.493Z,90.50
2018-02-10T04:26:14.129Z,90.20
2018-02-10T04:28:43.257Z,90.50
2018-02-10T04:31:11.416Z,90.40
2018-02-10T04:33:39.019Z,90.00
2018-02-10T04:36:06.983Z,90.30
2018-02-10T04:38:34.649Z,90.10
2018-02-10T04:41:02.284Z,90.00
2018-02-10T04:43:30.026Z,90.40
2018-02-10T04:45:57.666Z,90.30
2018-02-10T04:48:25.351Z,90.60
2018-02-10T04:50:53.034Z,90.50
2018-02-10T04:53:20.668Z,90.60
2018-02-10T04:55:48.302Z,90.80
2018-02-10T04:58:16.000Z,91.20
2018-02-10T05:00:43.653Z,91.70
2018-02-10T05:03:11.309Z,91.70
2018-02-10T05:05:39.007Z,90.90
2018-02-10T05:08:06.650Z,91.00
2018-02-10T05:10:34.395Z,91.40
2018-02-10T05:15:44.445Z,91.50
2018-02-10T05:18:17.252Z,91.50
2018-02-10T05:20:39.800Z,90.20
2018-02-10T05:25:35.136Z,90.50
2018-02-10T05:28:02.769Z,90.80
2018-02-10T05:30:30.420Z,90.50
2018-02-10T05:32:58.124Z,89.80
2018-02-10T05:35:25.761Z,90.20
2018-02-10T05:40:21.087Z,90.90
2018-02-10T05:42:48.870Z,90.60
2018-02-10T05:45:16.887Z,90.00
2018-02-10T05:47:46.215Z,90.40
2018-02-10T05:50:15.608Z,90.70
2018-02-10T05:52:43.247Z,90.90
2018-02-10T05:55:10.982Z,90.40
2018-02-10T05:57:39.067Z,90.30
2018-02-10T06:00:06.692Z,90.10
2018-02-10T06:02:34.409Z,90.50
2018-02-10T06:05:02.888Z,90.70
2018-02-10T06:07:30.521Z,90.80
2018-02-10T06:09:58.245Z,91.40
2018-02-10T06:12:26.740Z,91.60
2018-02-10T06:14:54.658Z,91.90
2018-02-10T06:17:22.349Z,92.00
2018-02-10T06:19:49.989Z,92.40
2018-02-10T06:22:17.645Z,92.80
2018-02-10T06:24:45.364Z,93.10
2018-02-10T06:27:13.900Z,93.00
2018-02-10T06:29:41.529Z,93.40
2018-02-10T06:32:09.240Z,93.50
2018-02-10T06:34:36.914Z,93.70
2018-02-10T06:39:43.676Z,93.30
2018-02-10T06:44:42.580Z,92.90
2018-02-10T06:47:10.284Z,92.20
2018-02-10T06:49:37.925Z,91.90
2018-02-10T06:52:05.565Z,92.20
2018-02-10T06:54:33.285Z,92.20
2018-02-10T06:57:00.973Z,92.90
2018-02-10T06:59:28.613Z,92.50
2018-02-10T07:01:57.264Z,92.20
2018-02-10T07:04:24.903Z,92.90
2018-02-10T07:06:52.564Z,91.90
2018-02-10T07:09:20.266Z,91.90
2018-02-10T07:11:47.905Z,92.00
2018-02-10T07:14:15.546Z,91.70
2018-02-10T07:16:43.520Z,92.10
2018-02-10T07:19:11.160Z,92.10
2018-02-10T07:21:38.925Z,91.70
2018-02-10T07:24:06.599Z,91.50
2018-02-10T07:26:35.304Z,91.30
2018-02-10T07:29:02.933Z,91.20
2018-02-10T07:31:30.740Z,91.10
2018-02-10T07:33:58.354Z,90.80
2018-02-10T07:36:25.989Z,91.00
2018-02-10T07:38:54.507Z,91.00
2018-02-10T07:41:22.150Z,89.50
2018-02-10T07:43:49.792Z,89.30
2018-02-10T07:46:18.707Z,89.60
2018-02-10T07:48:46.282Z,89.90
2018-02-10T07:51:14.880Z,89.60
2018-02-10T07:53:42.590Z,89.40
2018-02-10T07:56:10.241Z,90.10
2018-02-10T07:58:37.861Z,90.00
2018-02-10T08:01:05.596Z,90.30
2018-02-10T08:03:33.470Z,90.50
2018-02-10T08:08:42.275Z,90.50
2018-02-10T08:11:09.950Z,90.70
2018-02-10T08:13:38.322Z,90.10
2018-02-10T08:16:06.045Z,90.00
2018-02-10T08:18:33.685Z,90.70
2018-02-10T08:21:01.339Z,90.40
2018-02-10T08:23:29.072Z,90.90
2018-02-10T08:25:56.720Z,90.90
2018-02-10T08:28:24.376Z,90.30
2018-02-10T08:33:19.732Z,90.20
2018-02-10T08:35:47.369Z,89.10
2018-02-10T08:40:42.915Z,88.60
2018-02-10T08:43:10.510Z,88.70
2018-02-10T08:45:39.882Z,88.40
2018-02-10T08:48:08.080Z,88.30
2018-02-10T08:50:35.742Z,88.10
2018-02-10T08:53:03.459Z,88.80
2018-02-10T08:55:31.100Z,88.30
2018-02-10T08:57:59.607Z,89.50
2018-02-10T09:00:27.316Z,89.60
2018-02-10T09:02:54.963Z,90.00
2018-02-10T09:05:22.616Z,89.50
2018-02-10T09:07:50.316Z,90.00
2018-02-10T09:10:19.512Z,90.40
2018-02-10T09:12:47.096Z,89.60
2018-02-10T09:15:14.834Z,89.40
2018-02-10T09:17:42.480Z,90.00
2018-02-10T09:20:10.122Z,89.50
2018-02-10T09:22:38.719Z,89.40
2018-02-10T09:25:06.369Z,89.80
2018-02-10T09:27:34.169Z,90.20
2018-02-10T09:30:01.968Z,89.50
2018-02-10T09:40:10.729Z,89.20
2018-02-10T09:42:38.428Z,88.10
2018-02-10T09:45:06.147Z,86.90
2018-02-10T09:47:36.079Z,86.20
2018-02-10T09:50:04.307Z,85.80
2018-02-10T09:52:31.958Z,86.20
2018-02-10T09:57:33.016Z,87.40
2018-02-10T10:00:00.696Z,86.20
2018-02-10T10:02:28.785Z,85.30
2018-02-10T10:04:56.476Z,85.80
2018-02-10T10:07:26.935Z,86.10
2018-02-10T10:09:54.476Z,85.40
2018-02-10T10:12:22.197Z,84.50
2018-02-10T10:14:50.367Z,85.20
2018-02-10T10:17:18.017Z,85.40
2018-02-10T10:19:45.737Z,84.40
2018-02-10T10:22:13.440Z,84.60
2018-02-10T10:24:41.022Z,84.00
2018-02-10T10:27:09.676Z,85.00
2018-02-10T10:29:37.376Z,84.50
2018-02-10T10:32:05.008Z,83.80
2018-02-10T10:34:33.189Z,84.00
2018-02-10T10:37:00.832Z,83.60
2018-02-10T10:39:28.476Z,83.60
2018-02-10T10:41:56.207Z,83.40
2018-02-10T10:44:23.840Z,82.30
2018-02-10T10:46:51.487Z,83.20
2018-02-10T10:49:19.212Z,82.70
2018-02-10T10:51:46.947Z,81.70
2018-02-10T10:54:14.600Z,82.00
2018-02-10T10:56:43.272Z,82.10
2018-02-10T11:01:51.032Z,81.00
2018-02-10T11:04:19.594Z,81.40
2018-02-10T11:06:47.238Z,80.90
2018-02-10T11:09:15.281Z,78.50
2018-02-10T11:11:42.947Z,78.10
2018-02-10T11:14:10.566Z,77.60
2018-02-10T11:16:38.271Z,77.90
2018-02-10T11:19:05.932Z,76.90
2018-02-10T11:21:33.588Z,78.60
2018-02-10T11:24:01.305Z,77.70
2018-02-10T11:26:28.946Z,78.50
2018-02-10T11:28:56.593Z,79.50
2018-02-10T11:31:24.785Z,80.00
2018-02-10T11:33:52.488Z,80.40
2018-02-10T11:36:20.743Z,80.40
2018-02-10T11:38:52.715Z,79.00
2018-02-10T11:41:20.332Z,78.20
2018-02-10T11:43:47.973Z,78.70
2018-02-10T11:46:15.697Z,79.50
2018-02-10T11:48:43.360Z,80.00
2018-02-10T11:51:10.978Z,78.40
2018-02-10T11:53:38.681Z,79.60
2018-02-10T11:56:06.335Z,78.80
2018-02-10T11:58:33.975Z,78.60
2018-02-10T12:01:01.661Z,78.10
2018-02-10T12:03:29.304Z,77.60
2018-02-10T12:05:57.069Z,76.60
2018-02-10T12:08:25.549Z,76.70
2018-02-10T12:10:53.188Z,77.10
2018-02-10T12:13:20.827Z,75.70
2018-02-10T12:15:49.549Z,76.00
2018-02-10T12:18:17.193Z,75.80
2018-02-10T12:20:44.850Z,74.80
2018-02-10T12:23:12.532Z,74.90
2018-02-10T12:28:19.960Z,72.00
2018-02-10T12:30:47.381Z,71.80
2018-02-10T12:33:15.036Z,71.20
2018-02-10T12:35:42.772Z,71.30
2018-02-10T12:38:11.022Z,70.20
2018-02-10T12:40:39.363Z,71.50
2018-02-10T12:43:06.901Z,71.40
2018-02-10T12:45:34.582Z,71.40
2018-02-10T12:50:43.928Z,68.30
2018-02-10T12:53:11.524Z,68.20
2018-02-10T12:55:39.203Z,67.80
2018-02-10T12:58:06.929Z,67.80
2018-02-10T13:00:35.322Z,69.20
2018-02-10T13:03:03.986Z,71.00
2018-02-10T13:05:31.673Z,69.00
2018-02-10T13:07:59.321Z,68.80
2018-02-10T13:12:54.692Z,67.60
2018-02-10T13:15:22.337Z,67.00
2018-02-10T13:17:49.980Z,65.70
2018-02-10T13:20:18.041Z,65.30
2018-02-10T13:22:47.357Z,62.30
2018-02-10T13:25:14.996Z,63.30
2018-02-10T13:27:42.737Z,63.50
2018-02-10T13:30:10.378Z,63.50
2018-02-10T13:32:38.017Z,63.50
2018-02-10T13:35:08.676Z,63.80
2018-02-10T13:37:36.378Z,63.20
2018-02-10T13:42:32.869Z,64.20
2018-02-10T13:45:00.512Z,62.90
2018-02-10T13:47:28.162Z,62.40
2018-02-10T13:49:55.889Z,60.50
2018-02-10T13:52:23.521Z,59.40
2018-02-10T13:54:51.158Z,60.60
2018-02-10T13:57:19.289Z,57.90
2018-02-10T14:02:25.563Z,61.70
2018-02-10T14:04:53.208Z,62.20
2018-02-10T14:07:20.843Z,62.10
2018-02-10T14:09:48.542Z,62.70
2018-02-10T14:12:16.206Z,63.50
2018-02-10T14:14:43.846Z,63.90
2018-02-10T14:17:11.552Z,63.10
2018-02-10T14:19:39.421Z,63.80
2018-02-10T14:24:34.769Z,64.90
2018-02-10T14:27:02.764Z,65.40
2018-02-10T14:31:58.262Z,64.30
2018-02-10T14:34:25.897Z,63.40
2018-02-10T14:36:53.544Z,63.00
2018-02-10T14:39:21.233Z,61.90
2018-02-10T14:41:48.960Z,63.00
2018-02-10T14:46:44.309Z,60.30
2018-02-10T14:49:11.941Z,60.20
2018-02-10T14:51:39.578Z,60.70
2018-02-10T14:54:07.283Z,60.00
2018-02-10T14:56:34.932Z,61.50
2018-02-10T14:59:02.571Z,61.10
2018-02-10T15:03:57.921Z,59.40
2018-02-10T15:06:25.561Z,61.10
2018-02-10T15:08:53.285Z,61.40
2018-02-10T15:11:21.699Z,62.70
2018-02-10T15:16:17.401Z,63.30
2018-02-10T15:18:45.042Z,65.10
2018-02-10T15:21:13.268Z,66.90
2018-02-10T15:23:40.992Z,67.00
2018-02-10T15:30:23.242Z,66.20
2018-02-10T15:35:24.428Z,66.50
2018-02-10T15:37:52.071Z,65.70
2018-02-10T15:40:21.785Z,66.10
2018-02-10T15:42:49.422Z,66.10
2018-02-10T15:47:46.148Z,68.70
2018-02-10T15:50:15.044Z,69.30
2018-02-10T15:52:42.661Z,69.90
2018-02-10T15:55:10.319Z,70.20
2018-02-10T15:57:38.298Z,71.00
2018-02-10T16:00:05.942Z,71.30
2018-02-10T16:02:33.584Z,71.10
2018-02-10T16:05:01.292Z,70.60
2018-02-10T16:07:28.925Z,70.30
2018-02-10T16:09:56.594Z,69.40
2018-02-10T16:12:25.133Z,69.30
2018-02-10T16:14:52.788Z,69.40
2018-02-10T16:17:20.511Z,69.20
2018-02-10T16:19:48.317Z,68.30
2018-02-10T16:22:15.959Z,69.30
2018-02-10T16:24:43.691Z,69.20
2018-02-10T16:27:11.396Z,69.40
2018-02-10T16:29:39.020Z,69.70
2018-02-10T16:32:06.664Z,69.50
2018-02-10T16:34:34.408Z,69.80
2018-02-10T16:39:29.691Z,69.40
2018-02-10T16:41:57.400Z,69.50
2018-02-10T16:44:25.073Z,70.30
2018-02-10T16:46:53.016Z,70.80
2018-02-10T16:49:20.721Z,71.00
2018-02-10T16:51:48.346Z,71.30
2018-02-10T16:56:57.197Z,72.10
2018-02-10T16:59:24.831Z,72.60
2018-02-10T17:01:52.493Z,72.10
2018-02-10T17:04:20.180Z,72.30
2018-02-10T17:06:47.845Z,72.50
2018-02-10T17:09:15.487Z,72.50
2018-02-10T17:11:44.154Z,73.00
2018-02-10T17:14:12.044Z,73.50
2018-02-10T17:16:39.584Z,73.00
2018-02-10T17:19:07.425Z,72.80
2018-02-10T17:21:34.994Z,73.90
2018-02-10T17:26:30.368Z,74.30
2018-02-10T17:28:58.001Z,74.30
2018-02-10T17:31:25.646Z,74.10
2018-02-10T17:36:22.011Z,74.30
2018-02-10T17:38:49.693Z,75.50
2018-02-10T17:41:17.424Z,76.10
2018-02-10T17:43:45.077Z,76.90
2018-02-10T17:46:12.711Z,76.80
2018-02-10T17:48:40.425Z,77.10
2018-02-10T17:51:08.071Z,77.20
2018-02-10T17:53:35.718Z,77.60
2018-02-10T17:56:03.441Z,77.70
2018-02-10T17:58:31.110Z,77.10
2018-02-10T18:00:59.243Z,77.00
2018-02-10T18:03:26.964Z,76.10
2018-02-10T18:08:22.753Z,76.20
2018-02-10T18:10:50.460Z,76.50
2018-02-10T18:13:18.105Z,77.10
2018-02-10T18:15:45.841Z,77.50
2018-02-10T18:18:13.549Z,76.80
2018-02-10T18:23:22.389Z,77.10
2018-02-10T18:25:50.224Z,76.30
2018-02-10T18:28:17.704Z,75.90
2018-02-10T18:33:13.041Z,76.00
2018-02-10T18:35:40.762Z,77.00
2018-02-10T18:38:08.458Z,77.50
2018-02-10T18:40:36.110Z,77.70
2018-02-10T18:43:03.759Z,77.80
2018-02-10T18:45:31.456Z,77.70
2018-02-10T18:47:59.176Z,77.70
2018-02-10T18:50:26.914Z,77.60
2018-02-10T18:52:56.741Z,78.10
2018-02-10T18:55:24.597Z,77.90
2018-02-10T18:57:52.291Z,78.20
2018-02-10T19:00:19.980Z,78.00
2018-02-10T19:02:47.617Z,77.60
2018-02-10T19:07:48.529Z,79.40
2018-02-10T19:10:16.169Z,84.70
2018-02-10T19:12:44.316Z,82.60
2018-02-10T19:15:12.038Z,80.10
2018-02-10T19:17:39.725Z,80.00
2018-02-10T19:20:07.376Z,80.60
2018-02-10T19:25:03.157Z,80.90
2018-02-10T19:27:30.773Z,80.90
2018-02-10T19:29:58.504Z,81.20
2018-02-10T19:32:26.713Z,81.60
2018-02-10T19:34:54.374Z,81.60
2018-02-10T19:37:22.065Z,81.80
2018-02-10T19:39:49.712Z,82.20
2018-02-10T19:42:18.203Z,81.80
2018-02-10T19:44:45.923Z,81.50
2018-02-10T19:49:52.723Z,80.60
2018-02-10T19:54:49.565Z,80.80
2018-02-10T19:57:17.257Z,80.10
2018-02-10T19:59:44.925Z,79.40
2018-02-10T20:02:12.568Z,79.50
2018-02-10T20:04:40.804Z,79.80
2018-02-10T20:07:08.679Z,79.20
2018-02-10T20:09:36.726Z,79.80
2018-02-10T20:12:04.427Z,80.10
2018-02-10T20:14:32.119Z,79.70
2018-02-10T20:19:27.444Z,80.60
2018-02-10T20:21:55.244Z,80.50
2018-02-10T20:24:22.823Z,81.00
2018-02-10T20:26:50.547Z,80.40
2018-02-10T20:29:18.253Z,80.20
2018-02-10T20:31:45.895Z,79.80
2018-02-10T20:34:13.589Z,80.20
2018-02-10T20:36:41.257Z,80.40
2018-02-10T20:39:09.951Z,80.10
2018-02-10T20:41:37.575Z,79.80
2018-02-10T20:44:05.529Z,79.60
2018-02-10T20:46:33.557Z,80.00
2018-02-10T20:49:01.248Z,80.60
2018-02-10T20:51:28.900Z,80.80
2018-02-10T20:53:56.545Z,80.60
2018-02-10T20:56:24.198Z,80.40
2018-02-10T20:58:51.897Z,80.10
2018-02-10T21:01:19.523Z,80.00
2018-02-10T21:03:47.160Z,80.60
2018-02-10T21:06:14.884Z,80.20
2018-02-10T21:08:42.821Z,80.50
2018-02-10T21:11:10.477Z,80.70
2018-02-10T21:16:18.238Z,80.50
2018-02-10T21:18:45.937Z,80.60
2018-02-10T21:23:42.186Z,80.60
2018-02-10T21:26:09.911Z,80.20
2018-02-10T21:28:37.544Z,80.90
2018-02-10T21:31:05.249Z,81.30
2018-02-10T21:33:32.965Z,81.50
2018-02-10T21:36:00.620Z,81.60
2018-02-10T21:38:28.290Z,82.00
2018-02-10T21:40:56.002Z,82.30
2018-02-10T21:43:23.644Z,82.40
2018-02-10T21:45:51.326Z,81.90
2018-02-10T21:48:19.044Z,82.00
2018-02-10T21:53:14.317Z,81.90
2018-02-10T21:55:42.177Z,81.40
2018-02-10T21:58:09.785Z,81.00
2018-02-10T22:00:37.446Z,80.90
2018-02-10T22:05:32.808Z,82.50
2018-02-10T22:08:00.475Z,82.30
2018-02-10T22:10:28.160Z,84.60
2018-02-10T22:12:55.814Z,88.30
2018-02-10T22:15:24.344Z,85.60
2018-02-10T22:20:21.605Z,82.20
2018-02-10T22:22:49.277Z,79.80
2018-02-10T22:25:17.025Z,80.20
2018-02-10T22:27:44.645Z,81.10
2018-02-10T22:30:12.342Z,81.60
2018-02-10T22:32:40.877Z,81.90
2018-02-10T22:37:48.801Z,82.30
2018-02-10T22:40:16.502Z,82.00
2018-02-10T22:45:16.137Z,81.30
2018-02-10T22:47:43.778Z,81.60
2018-02-10T22:50:12.192Z,80.80
2018-02-10T22:52:39.930Z,80.60
2018-02-10T22:55:07.661Z,80.80
2018-02-10T22:57:35.297Z,81.60
2018-02-10T23:02:35.213Z,83.00
2018-02-10T23:05:04.876Z,83.50
2018-02-10T23:10:09.410Z,83.80
2018-02-10T23:12:37.019Z,83.50
2018-02-10T23:15:04.658Z,82.60
2018-02-10T23:17:32.352Z,82.40
2018-02-10T23:20:00.616Z,82.30
2018-02-10T23:22:29.139Z,82.00
2018-02-10T23:24:58.634Z,82.70
2018-02-10T23:27:26.249Z,83.50
2018-02-10T23:29:54.844Z,84.30
2018-02-10T23:32:22.552Z,84.20
2018-02-10T23:34:50.932Z,84.30
2018-02-10T23:37:18.589Z,84.20
2018-02-10T23:39:47.217Z,84.40
2018-02-10T23:42:14.858Z,84.40
2018-02-10T23:44:42.506Z,84.70
2018-02-10T23:49:48.959Z,83.90
2018-02-10T23:52:16.657Z,82.90
2018-02-10T23:57:13.017Z,81.30
2018-02-10T23:59:40.727Z,81.20
